createdAt,value
2018-01-30T00:00:58.404Z,59.16
2018-01-30T00:01:58.412Z,60.10
2018-01-30T00:02:58.426Z,59.81
2018-01-30T00:03:58.428Z,59.25
2018-01-30T00:04:58.437Z,60.19
2018-01-30T00:05:58.445Z,61.15
2018-01-30T00:06:58.452Z,61.33
2018-01-30T00:07:58.460Z,60.29
2018-01-30T00:08:58.469Z,58.97
2018-01-30T00:09:58.479Z,58.78
2018-01-30T00:10:58.484Z,57.73
2018-01-30T00:11:58.492Z,57.07
2018-01-30T00:12:58.500Z,56.88
2018-01-30T00:13:58.507Z,56.13
2018-01-30T00:14:58.514Z,55.94
2018-01-30T00:15:58.523Z,55.18
2018-01-30T00:16:58.530Z,55.46
2018-01-30T00:17:58.539Z,54.99
2018-01-30T00:18:58.547Z,54.52
2018-01-30T00:19:58.554Z,54.14
2018-01-30T00:20:58.563Z,53.47
2018-01-30T00:21:58.571Z,53.38
2018-01-30T00:22:58.578Z,53.57
2018-01-30T00:23:58.585Z,54.14
2018-01-30T00:24:58.594Z,54.71
2018-01-30T00:25:58.601Z,55.37
2018-01-30T00:26:58.608Z,56.22
2018-01-30T00:27:58.616Z,56.67
2018-01-30T00:28:58.624Z,57.04
2018-01-30T00:29:58.637Z,56.85
2018-01-30T00:30:58.637Z,56.48
2018-01-30T00:31:58.649Z,56.38
2018-01-30T00:32:58.655Z,56.67
2018-01-30T00:33:58.662Z,56.95
2018-01-30T00:34:58.670Z,56.67
2018-01-30T00:35:58.678Z,56.10
2018-01-30T00:36:58.685Z,55.25
2018-01-30T00:37:58.719Z,55.53
2018-01-30T00:38:58.701Z,54.77
2018-01-30T00:39:58.708Z,54.87
2018-01-30T00:40:58.716Z,55.25
2018-01-30T00:41:58.723Z,55.15
2018-01-30T00:42:58.730Z,54.96
2018-01-30T00:43:58.737Z,54.77
2018-01-30T00:44:58.746Z,55.15
2018-01-30T00:45:58.809Z,53.07
2018-01-30T00:46:58.762Z,52.69
2018-01-30T00:47:58.768Z,52.91
2018-01-30T00:48:58.777Z,52.69
2018-01-30T00:49:58.784Z,52.22
2018-01-30T00:50:58.792Z,52.81
2018-01-30T00:51:58.799Z,52.72
2018-01-30T00:52:58.807Z,52.53
2018-01-30T00:53:58.814Z,53.00
2018-01-30T00:54:58.822Z,53.66
2018-01-30T00:55:58.829Z,54.11
2018-01-30T00:56:58.836Z,54.33
2018-01-30T00:57:58.844Z,54.68
2018-01-30T00:58:58.851Z,54.96
2018-01-30T00:59:58.859Z,54.11
2018-01-30T01:00:58.868Z,53.36
2018-01-30T01:01:58.875Z,52.69
2018-01-30T01:02:58.881Z,51.20
2018-01-30T01:03:58.889Z,51.30
2018-01-30T01:04:58.897Z,50.92
2018-01-30T01:05:58.905Z,49.79
2018-01-30T01:06:58.911Z,49.41
2018-01-30T01:07:58.919Z,51.01
2018-01-30T01:08:58.927Z,50.82
2018-01-30T01:09:58.934Z,49.69
2018-01-30T01:10:58.940Z,48.46
2018-01-30T01:11:58.949Z,48.18
2018-01-30T01:12:58.956Z,48.55
2018-01-30T01:13:58.964Z,48.27
2018-01-30T01:14:58.971Z,48.18
2018-01-30T01:15:58.977Z,48.84
2018-01-30T01:16:58.986Z,50.26
2018-01-30T01:17:58.994Z,50.92
2018-01-30T01:18:59.001Z,51.58
2018-01-30T01:19:59.008Z,51.87
2018-01-30T01:20:59.016Z,51.96
2018-01-30T01:21:59.024Z,51.20
2018-01-30T01:22:59.030Z,51.87
2018-01-30T01:23:59.039Z,52.25
2018-01-30T01:24:59.046Z,52.34
2018-01-30T01:25:59.054Z,52.91
2018-01-30T01:26:59.063Z,52.72
2018-01-30T01:27:59.070Z,52.34
2018-01-30T01:28:59.077Z,52.50
2018-01-30T01:29:59.084Z,52.22
2018-01-30T01:30:59.089Z,51.77
2018-01-30T01:31:59.098Z,51.75
2018-01-30T01:32:59.108Z,51.56
2018-01-30T01:33:59.114Z,52.03
2018-01-30T01:34:59.121Z,52.50
2018-01-30T01:35:59.129Z,52.79
2018-01-30T01:36:59.138Z,52.69
2018-01-30T01:37:59.144Z,52.03
2018-01-30T01:38:59.150Z,52.03
2018-01-30T01:39:59.158Z,52.31
2018-01-30T01:40:59.166Z,52.79
2018-01-30T01:41:59.173Z,52.41
2018-01-30T01:42:59.184Z,53.36
2018-01-30T01:43:59.188Z,54.30
2018-01-30T01:44:59.198Z,54.21
2018-01-30T01:45:59.203Z,53.92
2018-01-30T01:46:59.209Z,53.36
2018-01-30T01:47:59.218Z,52.88
2018-01-30T01:48:59.227Z,51.84
2018-01-30T01:49:59.233Z,50.80
2018-01-30T01:50:59.240Z,50.61
2018-01-30T01:51:59.247Z,50.04
2018-01-30T01:52:59.255Z,49.76
2018-01-30T01:53:59.263Z,49.66
2018-01-30T01:54:59.270Z,49.10
2018-01-30T01:55:59.279Z,49.10
2018-01-30T01:56:59.284Z,49.66
2018-01-30T01:57:59.292Z,50.14
2018-01-30T01:58:59.300Z,50.33
2018-01-30T01:59:59.306Z,50.61
2018-01-30T02:00:59.313Z,50.71
2018-01-30T02:01:59.320Z,51.18
2018-01-30T02:02:59.329Z,52.22
2018-01-30T02:03:59.336Z,51.65
2018-01-30T02:04:59.342Z,50.71
2018-01-30T02:05:59.350Z,50.71
2018-01-30T02:06:59.358Z,50.80
2018-01-30T02:07:59.370Z,50.90
2018-01-30T02:08:59.371Z,51.18
2018-01-30T02:09:59.380Z,51.84
2018-01-30T02:10:59.386Z,52.50
2018-01-30T02:11:59.393Z,53.26
2018-01-30T02:12:59.409Z,54.11
2018-01-30T02:13:59.410Z,55.82
2018-01-30T02:14:59.415Z,56.57
2018-01-30T02:15:59.426Z,56.85
2018-01-30T02:16:59.433Z,56.76
2018-01-30T02:17:59.438Z,56.76
2018-01-30T02:18:59.445Z,56.85
2018-01-30T02:19:59.452Z,56.48
2018-01-30T02:20:59.459Z,56.95
2018-01-30T02:21:59.468Z,56.95
2018-01-30T02:22:59.476Z,56.95
2018-01-30T02:23:59.485Z,57.61
2018-01-30T02:24:59.489Z,57.61
2018-01-30T02:25:59.497Z,57.99
2018-01-30T02:26:59.505Z,58.94
2018-01-30T02:27:59.511Z,59.69
2018-01-30T02:28:59.518Z,60.17
2018-01-30T02:29:59.525Z,60.17
2018-01-30T02:30:59.532Z,60.64
2018-01-30T02:31:59.541Z,59.50
2018-01-30T02:32:59.549Z,59.50
2018-01-30T02:33:59.556Z,59.50
2018-01-30T02:34:59.562Z,60.17
2018-01-30T02:35:59.571Z,60.17
2018-01-30T02:36:59.576Z,61.02
2018-01-30T02:37:59.583Z,62.44
2018-01-30T02:38:59.592Z,62.53
2018-01-30T02:39:59.597Z,63.10
2018-01-30T02:40:59.610Z,62.72
2018-01-30T02:41:59.612Z,62.63
2018-01-30T02:42:59.636Z,61.68
2018-01-30T02:43:59.627Z,60.36
2018-01-30T02:44:59.633Z,59.03
2018-01-30T02:45:59.642Z,58.84
2018-01-30T02:46:59.647Z,58.18
2018-01-30T02:47:59.656Z,57.33
2018-01-30T02:48:59.662Z,57.42
2018-01-30T02:49:59.670Z,58.75
2018-01-30T02:50:59.676Z,60.64
2018-01-30T02:51:59.684Z,61.58
2018-01-30T02:52:59.691Z,61.87
2018-01-30T02:53:59.698Z,62.25
2018-01-30T02:54:59.704Z,63.01
2018-01-30T02:55:59.719Z,63.95
2018-01-30T02:56:59.722Z,65.28
2018-01-30T02:57:59.727Z,65.84
2018-01-30T02:58:59.734Z,66.31
2018-01-30T02:59:59.742Z,66.03
2018-01-30T03:00:59.748Z,66.13
2018-01-30T03:01:59.756Z,66.22
2018-01-30T03:02:59.761Z,66.13
2018-01-30T03:03:59.770Z,66.22
2018-01-30T03:04:59.777Z,66.50
2018-01-30T03:05:59.783Z,66.60
2018-01-30T03:06:59.790Z,67.45
2018-01-30T03:07:59.796Z,68.21
2018-01-30T03:08:59.805Z,68.40
2018-01-30T03:09:59.809Z,68.68
2018-01-30T03:10:59.816Z,68.87
2018-01-30T03:11:59.824Z,68.68
2018-01-30T03:12:59.831Z,68.21
2018-01-30T03:13:59.839Z,68.40
2018-01-30T03:14:59.844Z,67.07
2018-01-30T03:15:59.852Z,66.60
2018-01-30T03:16:59.859Z,66.22
2018-01-30T03:17:59.866Z,64.80
2018-01-30T03:18:59.872Z,65.37
2018-01-30T03:19:59.880Z,65.56
2018-01-30T03:20:59.887Z,65.37
2018-01-30T03:21:59.894Z,64.71
2018-01-30T03:22:59.899Z,63.76
2018-01-30T03:23:59.905Z,63.76
2018-01-30T03:24:59.913Z,64.14
2018-01-30T03:25:59.921Z,63.95
2018-01-30T03:26:59.929Z,64.23
2018-01-30T03:27:59.933Z,63.85
2018-01-30T03:28:59.942Z,62.53
2018-01-30T03:29:59.948Z,61.96
2018-01-30T03:30:59.954Z,61.77
2018-01-30T03:31:59.961Z,61.96
2018-01-30T03:32:59.969Z,62.72
2018-01-30T03:33:59.975Z,63.01
2018-01-30T03:34:59.982Z,62.63
2018-01-30T03:35:59.991Z,62.63
2018-01-30T03:36:59.995Z,62.63
2018-01-30T03:38:00.007Z,62.82
2018-01-30T03:39:00.012Z,62.72
2018-01-30T03:40:00.022Z,64.04
2018-01-30T03:41:00.025Z,62.44
2018-01-30T03:42:00.034Z,60.36
2018-01-30T03:43:00.037Z,59.50
2018-01-30T03:44:00.054Z,57.33
2018-01-30T03:45:00.060Z,56.01
2018-01-30T03:46:00.061Z,55.06
2018-01-30T03:47:00.066Z,54.58
2018-01-30T03:48:00.073Z,54.68
2018-01-30T03:49:00.081Z,54.87
2018-01-30T03:50:00.088Z,55.25
2018-01-30T03:51:00.097Z,58.65
2018-01-30T03:52:00.104Z,61.21
2018-01-30T03:53:00.113Z,62.72
2018-01-30T03:54:00.115Z,63.85
2018-01-30T03:55:00.122Z,64.14
2018-01-30T03:56:00.127Z,63.48
2018-01-30T03:57:00.135Z,62.06
2018-01-30T03:58:00.143Z,59.03
2018-01-30T03:59:00.151Z,57.33
2018-01-30T04:00:00.160Z,56.85
2018-01-30T04:01:00.164Z,55.91
2018-01-30T04:02:00.170Z,55.06
2018-01-30T04:03:00.176Z,54.96
2018-01-30T04:04:00.184Z,54.58
2018-01-30T04:05:00.191Z,54.77
2018-01-30T04:06:00.199Z,55.44
2018-01-30T04:07:00.205Z,56.48
2018-01-30T04:08:00.212Z,58.28
2018-01-30T04:09:00.219Z,59.41
2018-01-30T04:10:00.227Z,60.26
2018-01-30T04:11:00.233Z,60.36
2018-01-30T04:12:00.240Z,58.75
2018-01-30T04:13:00.246Z,58.56
2018-01-30T04:14:00.253Z,58.56
2018-01-30T04:15:00.261Z,58.84
2018-01-30T04:16:00.269Z,59.22
2018-01-30T04:17:00.275Z,59.12
2018-01-30T04:18:00.282Z,58.94
2018-01-30T04:19:00.288Z,59.03
2018-01-30T04:20:00.296Z,58.75
2018-01-30T04:21:00.303Z,58.18
2018-01-30T04:22:00.310Z,57.52
2018-01-30T04:23:00.317Z,56.95
2018-01-30T04:24:00.324Z,56.57
2018-01-30T04:25:00.331Z,56.10
2018-01-30T04:26:00.340Z,56.20
2018-01-30T04:27:00.347Z,56.01
2018-01-30T04:28:00.352Z,55.44
2018-01-30T04:29:00.359Z,55.15
2018-01-30T04:30:00.367Z,54.58
2018-01-30T04:31:00.375Z,54.87
2018-01-30T04:32:00.380Z,54.02
2018-01-30T04:33:00.387Z,53.83
2018-01-30T04:34:00.399Z,54.30
2018-01-30T04:35:00.403Z,52.03
2018-01-30T04:36:00.410Z,51.84
2018-01-30T04:37:00.416Z,52.69
2018-01-30T04:38:00.425Z,53.36
2018-01-30T04:39:00.430Z,53.83
2018-01-30T04:40:00.437Z,53.45
2018-01-30T04:41:00.447Z,53.45
2018-01-30T04:42:00.452Z,53.07
2018-01-30T04:43:00.458Z,53.45
2018-01-30T04:44:00.466Z,53.36
2018-01-30T04:45:00.473Z,53.36
2018-01-30T04:46:00.480Z,53.64
2018-01-30T04:47:00.486Z,52.98
2018-01-30T04:48:00.496Z,52.69
2018-01-30T04:49:00.501Z,53.83
2018-01-30T04:50:00.507Z,54.49
2018-01-30T04:51:00.515Z,54.49
2018-01-30T04:52:00.523Z,53.83
2018-01-30T04:53:00.528Z,51.75
2018-01-30T04:54:00.537Z,52.31
2018-01-30T04:55:00.543Z,52.60
2018-01-30T04:56:00.550Z,52.69
2018-01-30T04:57:00.556Z,54.11
2018-01-30T04:58:00.564Z,54.77
2018-01-30T04:59:00.570Z,55.34
2018-01-30T05:00:00.577Z,55.63
2018-01-30T05:01:00.586Z,56.01
2018-01-30T05:02:00.595Z,55.91
2018-01-30T05:03:00.597Z,56.01
2018-01-30T05:04:00.604Z,55.53
2018-01-30T05:05:00.612Z,55.15
2018-01-30T05:06:00.653Z,55.15
2018-01-30T05:07:00.626Z,55.34
2018-01-30T05:08:00.632Z,54.68
2018-01-30T05:09:00.644Z,52.50
2018-01-30T05:10:00.649Z,51.75
2018-01-30T05:11:00.654Z,51.46
2018-01-30T05:12:00.708Z,52.03
2018-01-30T05:13:00.667Z,52.03
2018-01-30T05:14:00.674Z,51.84
2018-01-30T05:15:00.680Z,51.75
2018-01-30T05:16:00.689Z,51.56
2018-01-30T05:17:00.697Z,51.28
2018-01-30T05:18:00.702Z,51.28
2018-01-30T05:19:00.708Z,52.22
2018-01-30T05:20:00.725Z,50.52
2018-01-30T05:21:00.722Z,50.23
2018-01-30T05:22:00.732Z,50.42
2018-01-30T05:23:00.735Z,50.71
2018-01-30T05:24:00.744Z,51.93
2018-01-30T05:25:00.752Z,51.37
2018-01-30T05:26:00.758Z,52.22
2018-01-30T05:27:00.766Z,52.12
2018-01-30T05:28:00.773Z,51.56
2018-01-30T05:29:00.778Z,50.99
2018-01-30T05:30:00.785Z,51.84
2018-01-30T05:31:00.792Z,51.84
2018-01-30T05:32:00.799Z,51.18
2018-01-30T05:33:00.805Z,51.84
2018-01-30T05:34:00.815Z,51.46
2018-01-30T05:35:00.819Z,51.84
2018-01-30T05:36:00.828Z,52.12
2018-01-30T05:37:00.832Z,52.88
2018-01-30T05:38:00.842Z,52.31
2018-01-30T05:39:00.847Z,52.69
2018-01-30T05:40:00.855Z,53.26
2018-01-30T05:41:00.861Z,53.55
2018-01-30T05:42:00.869Z,54.18
2018-01-30T05:43:00.874Z,54.65
2018-01-30T05:44:00.882Z,54.93
2018-01-30T05:45:00.889Z,54.55
2018-01-30T05:46:00.899Z,54.18
2018-01-30T05:47:00.902Z,54.27
2018-01-30T05:48:00.911Z,54.65
2018-01-30T05:49:00.917Z,54.55
2018-01-30T05:50:00.928Z,55.03
2018-01-30T05:51:00.931Z,55.50
2018-01-30T05:52:00.936Z,56.07
2018-01-30T05:53:00.944Z,56.07
2018-01-30T05:54:00.951Z,56.07
2018-01-30T05:55:00.957Z,55.69
2018-01-30T05:56:00.963Z,56.45
2018-01-30T05:57:00.971Z,56.54
2018-01-30T05:58:00.977Z,56.73
2018-01-30T05:59:00.984Z,57.01
2018-01-30T06:00:00.990Z,56.82
2018-01-30T06:01:00.998Z,56.63
2018-01-30T06:02:01.003Z,57.49
2018-01-30T06:03:01.011Z,57.87
2018-01-30T06:04:01.018Z,58.06
2018-01-30T06:05:01.024Z,58.72
2018-01-30T06:06:01.032Z,59.28
2018-01-30T06:07:01.037Z,59.47
2018-01-30T06:08:01.046Z,59.76
2018-01-30T06:09:01.049Z,60.04
2018-01-30T06:10:01.060Z,59.47
2018-01-30T06:11:01.062Z,59.19
2018-01-30T06:12:01.069Z,59.28
2018-01-30T06:13:01.075Z,58.72
2018-01-30T06:14:01.082Z,58.25
2018-01-30T06:15:01.088Z,57.96
2018-01-30T06:16:01.094Z,58.15
2018-01-30T06:17:01.103Z,57.96
2018-01-30T06:18:01.108Z,58.06
2018-01-30T06:19:01.114Z,56.45
2018-01-30T06:20:01.122Z,56.07
2018-01-30T06:21:01.129Z,56.54
2018-01-30T06:22:01.131Z,57.11
2018-01-30T06:23:01.138Z,57.58
2018-01-30T06:24:01.145Z,57.39
2018-01-30T06:25:01.153Z,57.87
2018-01-30T06:26:01.158Z,57.87
2018-01-30T06:27:01.166Z,57.58
2018-01-30T06:28:01.173Z,56.92
2018-01-30T06:29:01.177Z,56.73
2018-01-30T06:30:01.186Z,56.54
2018-01-30T06:31:01.189Z,56.54
2018-01-30T06:32:01.199Z,56.63
2018-01-30T06:33:01.205Z,56.63
2018-01-30T06:34:01.209Z,57.11
2018-01-30T06:35:01.217Z,57.20
2018-01-30T06:36:01.222Z,56.92
2018-01-30T06:37:01.229Z,56.92
2018-01-30T06:38:01.235Z,57.39
2018-01-30T06:39:01.240Z,57.96
2018-01-30T06:40:01.248Z,58.06
2018-01-30T06:41:01.255Z,58.81
2018-01-30T06:42:01.260Z,58.81
2018-01-30T06:43:01.267Z,58.91
2018-01-30T06:44:01.274Z,58.44
2018-01-30T06:45:01.279Z,58.06
2018-01-30T06:46:01.286Z,58.81
2018-01-30T06:47:01.294Z,59.00
2018-01-30T06:48:01.298Z,59.19
2018-01-30T06:49:01.306Z,59.47
2018-01-30T06:50:01.316Z,59.66
2018-01-30T06:51:01.316Z,59.38
2018-01-30T06:52:01.324Z,59.47
2018-01-30T06:53:01.331Z,59.28
2018-01-30T06:54:01.339Z,58.81
2018-01-30T06:55:01.343Z,57.49
2018-01-30T06:56:01.350Z,57.39
2018-01-30T06:57:01.358Z,57.58
2018-01-30T06:58:01.362Z,57.39
2018-01-30T06:59:01.366Z,57.96
2018-01-30T07:00:01.374Z,58.06
2018-01-30T07:01:01.380Z,57.87
2018-01-30T07:02:01.385Z,57.77
2018-01-30T07:03:01.391Z,57.49
2018-01-30T07:04:01.398Z,57.87
2018-01-30T07:05:01.410Z,57.77
2018-01-30T07:06:01.411Z,56.54
2018-01-30T07:07:01.418Z,56.54
2018-01-30T07:08:01.426Z,56.82
2018-01-30T07:09:01.430Z,57.01
2018-01-30T07:10:01.441Z,56.45
2018-01-30T07:11:01.443Z,56.26
2018-01-30T07:12:01.449Z,56.26
2018-01-30T07:13:01.455Z,56.16
2018-01-30T07:14:01.461Z,56.26
2018-01-30T07:15:01.468Z,55.98
2018-01-30T07:16:01.475Z,55.41
2018-01-30T07:17:01.482Z,54.84
2018-01-30T07:18:01.489Z,54.46
2018-01-30T07:19:01.493Z,54.08
2018-01-30T07:20:01.500Z,54.37
2018-01-30T07:21:01.509Z,55.03
2018-01-30T07:22:01.515Z,54.55
2018-01-30T07:23:01.523Z,54.93
2018-01-30T07:24:01.527Z,54.46
2018-01-30T07:25:01.533Z,54.55
2018-01-30T07:26:01.540Z,54.55
2018-01-30T07:27:01.545Z,55.12
2018-01-30T07:28:01.570Z,55.31
2018-01-30T07:29:01.557Z,55.69
2018-01-30T07:30:01.566Z,56.16
2018-01-30T07:31:01.573Z,56.73
2018-01-30T07:32:01.579Z,56.63
2018-01-30T07:33:01.585Z,56.82
2018-01-30T07:34:01.591Z,56.26
2018-01-30T07:35:01.598Z,55.31
2018-01-30T07:36:01.605Z,54.65
2018-01-30T07:37:01.611Z,54.84
2018-01-30T07:38:01.617Z,55.98
2018-01-30T07:39:01.623Z,56.35
2018-01-30T07:40:01.631Z,56.54
2018-01-30T07:41:01.637Z,56.82
2018-01-30T07:42:01.647Z,57.39
2018-01-30T07:43:01.649Z,57.30
2018-01-30T07:44:01.657Z,57.68
2018-01-30T07:45:01.665Z,56.54
2018-01-30T07:46:01.677Z,56.63
2018-01-30T07:47:01.677Z,56.82
2018-01-30T07:48:01.684Z,56.54
2018-01-30T07:49:01.689Z,56.35
2018-01-30T07:50:01.697Z,56.26
2018-01-30T07:51:01.704Z,56.26
2018-01-30T07:52:01.709Z,55.88
2018-01-30T07:53:01.718Z,54.74
2018-01-30T07:54:01.723Z,55.25
2018-01-30T07:55:01.729Z,55.22
2018-01-30T07:56:01.737Z,55.22
2018-01-30T07:57:01.782Z,55.44
2018-01-30T07:58:01.751Z,54.96
2018-01-30T07:59:01.756Z,54.58
2018-01-30T08:00:01.766Z,54.49
2018-01-30T08:01:01.773Z,54.21
2018-01-30T08:02:01.778Z,53.92
2018-01-30T08:03:01.784Z,54.30
2018-01-30T08:04:01.791Z,53.83
2018-01-30T08:05:01.800Z,53.92
2018-01-30T08:06:01.806Z,54.11
2018-01-30T08:07:01.815Z,54.30
2018-01-30T08:08:01.816Z,54.30
2018-01-30T08:09:01.825Z,54.11
2018-01-30T08:10:01.832Z,53.74
2018-01-30T08:11:01.837Z,53.45
2018-01-30T08:12:01.845Z,53.36
2018-01-30T08:13:01.851Z,52.69
2018-01-30T08:14:01.859Z,52.69
2018-01-30T08:15:01.864Z,52.50
2018-01-30T08:16:01.872Z,52.60
2018-01-30T08:17:01.880Z,52.60
2018-01-30T08:18:01.886Z,53.17
2018-01-30T08:19:01.893Z,53.55
2018-01-30T08:20:01.902Z,53.07
2018-01-30T08:21:01.906Z,53.17
2018-01-30T08:22:01.915Z,53.07
2018-01-30T08:23:01.922Z,52.22
2018-01-30T08:24:01.929Z,52.03
2018-01-30T08:25:01.935Z,52.60
2018-01-30T08:26:01.942Z,53.36
2018-01-30T08:27:01.948Z,53.74
2018-01-30T08:28:01.959Z,53.83
2018-01-30T08:29:01.964Z,54.58
2018-01-30T08:30:01.977Z,54.77
2018-01-30T08:31:01.979Z,54.68
2018-01-30T08:32:01.988Z,54.68
2018-01-30T08:33:01.994Z,54.87
2018-01-30T08:34:02.001Z,54.23
2018-01-30T08:35:02.011Z,53.19
2018-01-30T08:36:02.015Z,52.15
2018-01-30T08:37:02.022Z,51.87
2018-01-30T08:38:02.042Z,51.11
2018-01-30T08:39:02.037Z,51.11
2018-01-30T08:40:02.047Z,51.01
2018-01-30T08:41:02.056Z,51.96
2018-01-30T08:42:02.061Z,51.30
2018-01-30T08:43:02.066Z,51.30
2018-01-30T08:44:02.074Z,51.68
2018-01-30T08:45:02.083Z,51.39
2018-01-30T08:46:02.090Z,52.27
2018-01-30T08:47:02.098Z,52.18
2018-01-30T08:48:02.104Z,51.61
2018-01-30T08:49:02.112Z,51.70
2018-01-30T08:50:02.121Z,51.70
2018-01-30T08:51:02.125Z,50.57
2018-01-30T08:52:02.135Z,50.38
2018-01-30T08:53:02.142Z,50.57
2018-01-30T08:54:02.151Z,50.38
2018-01-30T08:55:02.158Z,49.24
2018-01-30T08:56:02.167Z,49.43
2018-01-30T08:57:02.178Z,48.68
2018-01-30T08:58:02.183Z,49.46
2018-01-30T08:59:02.190Z,48.89
2018-01-30T09:00:02.200Z,48.70
2018-01-30T09:01:02.208Z,48.51
2018-01-30T09:02:02.217Z,48.32
2018-01-30T09:03:02.223Z,48.03
2018-01-30T09:04:02.233Z,47.37
2018-01-30T09:05:02.241Z,46.99
2018-01-30T09:06:02.250Z,46.99
2018-01-30T09:07:02.263Z,46.71
2018-01-30T09:08:02.267Z,46.33
2018-01-30T09:09:02.276Z,46.90
2018-01-30T09:10:02.287Z,46.83
2018-01-30T09:11:02.292Z,47.20
2018-01-30T09:12:02.303Z,46.83
2018-01-30T09:13:02.310Z,46.54
2018-01-30T09:14:02.320Z,46.35
2018-01-30T09:15:02.328Z,46.07
2018-01-30T09:16:02.339Z,45.88
2018-01-30T09:17:02.346Z,45.31
2018-01-30T09:18:02.355Z,44.17
2018-01-30T09:19:02.369Z,44.55
2018-01-30T09:20:02.373Z,44.55
2018-01-30T09:21:02.382Z,44.08
2018-01-30T09:22:02.391Z,44.74
2018-01-30T09:23:02.400Z,44.57
2018-01-30T09:24:02.413Z,45.43
2018-01-30T09:25:02.420Z,44.57
2018-01-30T09:26:02.429Z,43.24
2018-01-30T09:27:02.443Z,42.77
2018-01-30T09:28:02.454Z,43.15
2018-01-30T09:29:02.458Z,43.05
2018-01-30T09:30:02.471Z,43.15
2018-01-30T09:31:02.476Z,43.34
2018-01-30T09:32:02.488Z,42.13
2018-01-30T09:33:02.496Z,41.85
2018-01-30T09:34:02.507Z,41.46
2018-01-30T09:35:02.516Z,41.56
2018-01-30T09:36:02.527Z,40.70
2018-01-30T09:37:02.536Z,38.90
2018-01-30T09:38:02.550Z,39.64
2018-01-30T09:39:02.556Z,39.66
2018-01-30T09:40:02.567Z,39.66
2018-01-30T09:41:02.577Z,40.50
2018-01-30T09:42:02.586Z,41.75
2018-01-30T09:43:02.597Z,42.70
2018-01-30T09:44:02.607Z,42.70
2018-01-30T09:45:02.619Z,43.17
2018-01-30T09:46:02.629Z,43.93
2018-01-30T09:47:02.640Z,43.27
2018-01-30T09:48:02.651Z,42.70
2018-01-30T09:49:02.660Z,42.34
2018-01-30T09:50:02.671Z,42.05
2018-01-30T09:51:02.685Z,41.77
2018-01-30T09:52:02.692Z,40.89
2018-01-30T09:53:02.701Z,40.72
2018-01-30T09:54:02.713Z,40.82
2018-01-30T09:55:02.722Z,40.04
2018-01-30T09:56:02.735Z,39.95
2018-01-30T09:57:02.745Z,41.46
2018-01-30T09:58:02.757Z,39.57
2018-01-30T09:59:02.767Z,40.61
2018-01-30T10:00:02.778Z,41.49
2018-01-30T10:01:02.791Z,41.86
2018-01-30T10:02:02.801Z,40.72
2018-01-30T10:03:02.860Z,40.56
2018-01-30T10:04:02.824Z,40.56
2018-01-30T10:05:02.839Z,40.17
2018-01-30T10:06:02.845Z,38.94
2018-01-30T10:07:02.857Z,37.61
2018-01-30T10:08:02.869Z,39.25
2018-01-30T10:09:02.878Z,38.10
2018-01-30T10:10:02.889Z,36.70
2018-01-30T10:11:02.900Z,36.32
2018-01-30T10:12:02.911Z,36.32
2018-01-30T10:13:02.924Z,34.23
2018-01-30T10:14:02.935Z,35.08
2018-01-30T10:15:02.948Z,35.54
2018-01-30T10:16:02.959Z,35.05
2018-01-30T10:17:02.971Z,35.90
2018-01-30T10:18:02.984Z,37.30
2018-01-30T10:19:02.998Z,38.46
2018-01-30T10:20:03.015Z,37.80
2018-01-30T10:21:03.019Z,37.80
2018-01-30T10:22:03.032Z,38.37
2018-01-30T10:23:03.044Z,38.96
2018-01-30T10:24:03.056Z,37.92
2018-01-30T10:25:03.068Z,36.22
2018-01-30T10:26:03.079Z,36.41
2018-01-30T10:27:03.092Z,36.11
2018-01-30T10:28:03.104Z,37.13
2018-01-30T10:30:46.565Z,37.13
2018-01-30T10:31:46.579Z,36.85
2018-01-30T10:32:46.591Z,35.90
2018-01-30T10:33:46.602Z,35.81
2018-01-30T10:34:46.614Z,36.58
2018-01-30T10:35:46.626Z,37.15
2018-01-30T10:36:46.641Z,38.20
2018-01-30T10:37:46.651Z,38.20
2018-01-30T10:38:46.663Z,36.89
2018-01-30T10:39:46.676Z,37.54
2018-01-30T10:40:46.691Z,37.27
2018-01-30T10:41:46.703Z,37.37
2018-01-30T10:42:46.714Z,38.03
2018-01-30T10:43:46.727Z,37.67
2018-01-30T10:44:46.739Z,36.81
2018-01-30T10:45:46.752Z,36.35
2018-01-30T10:46:46.764Z,34.83
2018-01-30T10:47:46.778Z,35.31
2018-01-30T10:48:46.799Z,34.66
2018-01-30T10:49:46.804Z,34.28
2018-01-30T10:50:46.816Z,34.28
2018-01-30T10:51:46.830Z,33.33
2018-01-30T10:52:46.847Z,33.91
2018-01-30T10:53:46.861Z,33.25
2018-01-30T10:54:46.869Z,32.60
2018-01-30T10:55:46.884Z,32.50
2018-01-30T10:56:46.896Z,30.99
2018-01-30T10:57:46.910Z,30.50
2018-01-30T10:58:46.923Z,29.53
2018-01-30T10:59:46.939Z,30.10
2018-01-30T11:00:46.953Z,31.61
2018-01-30T11:01:46.966Z,31.99
2018-01-30T11:02:46.980Z,32.29
2018-01-30T11:03:46.996Z,33.84
2018-01-30T11:04:49.356Z,30.88
2018-01-30T11:05:47.032Z,30.02
2018-01-30T11:06:47.037Z,29.99
2018-01-30T11:07:47.052Z,31.58
2018-01-30T11:08:47.067Z,32.91
2018-01-30T11:09:47.082Z,34.53
2018-01-30T11:10:47.095Z,32.91
2018-01-30T11:11:47.110Z,32.62
2018-01-30T11:12:47.126Z,33.69
2018-01-30T11:13:47.140Z,33.97
2018-01-30T11:14:47.154Z,33.10
2018-01-30T11:15:47.169Z,33.67
2018-01-30T11:16:47.185Z,34.83
2018-01-30T11:17:47.201Z,33.70
2018-01-30T11:18:47.213Z,32.28
2018-01-30T11:19:47.227Z,32.37
2018-01-30T11:20:47.245Z,32.45
2018-01-30T11:21:47.258Z,33.80
2018-01-30T11:22:47.271Z,34.07
2018-01-30T11:23:47.288Z,33.22
2018-01-30T11:24:47.304Z,31.60
2018-01-30T11:25:47.321Z,32.45
2018-01-30T11:26:47.331Z,32.75
2018-01-30T11:27:47.346Z,32.01
2018-01-30T11:28:47.362Z,30.29
2018-01-30T11:29:47.384Z,31.32
2018-01-30T11:30:47.392Z,33.33
2018-01-30T11:31:47.407Z,33.14
2018-01-30T11:32:47.423Z,32.18
2018-01-30T11:33:47.438Z,30.76
2018-01-30T11:34:47.455Z,32.74
2018-01-30T11:35:47.470Z,36.15
2018-01-30T11:36:47.483Z,36.62
2018-01-30T11:37:47.504Z,37.00
2018-01-30T11:38:47.515Z,35.84
2018-01-30T11:39:47.530Z,36.33
2018-01-30T11:40:47.546Z,35.10
2018-01-30T11:41:47.561Z,35.10
2018-01-30T11:42:47.576Z,36.15
2018-01-30T11:43:47.590Z,36.15
2018-01-30T11:44:47.607Z,36.62
2018-01-30T11:45:47.621Z,34.99
2018-01-30T11:46:47.638Z,35.84
2018-01-30T11:47:47.651Z,36.98
2018-01-30T11:48:47.668Z,36.04
2018-01-30T11:49:47.684Z,36.91
2018-01-30T11:50:47.697Z,36.13
2018-01-30T11:51:47.713Z,35.27
2018-01-30T11:52:47.729Z,35.84
2018-01-30T11:53:47.745Z,35.75
2018-01-30T11:54:47.759Z,36.81
2018-01-30T11:55:47.774Z,35.58
2018-01-30T11:56:47.788Z,34.81
2018-01-30T11:57:47.803Z,33.31
2018-01-30T11:58:47.817Z,33.69
2018-01-30T11:59:47.833Z,33.31
2018-01-30T12:00:47.850Z,33.96
2018-01-30T12:01:47.863Z,34.17
2018-01-30T12:02:47.878Z,34.63
2018-01-30T12:03:47.895Z,34.13
2018-01-30T12:04:47.910Z,34.32
2018-01-30T12:05:47.925Z,35.65
2018-01-30T12:06:47.944Z,34.13
2018-01-30T12:07:47.972Z,33.96
2018-01-30T12:08:47.969Z,34.70
2018-01-30T12:09:47.984Z,36.41
2018-01-30T12:10:48.002Z,37.69
2018-01-30T12:11:48.018Z,35.12
2018-01-30T12:12:48.035Z,34.83
2018-01-30T12:13:48.050Z,34.05
2018-01-30T12:14:48.060Z,34.45
2018-01-30T12:15:48.075Z,35.21
2018-01-30T12:16:48.090Z,34.81
2018-01-30T12:17:48.106Z,34.23
2018-01-30T12:18:48.121Z,34.53
2018-01-30T12:19:48.137Z,34.91
2018-01-30T12:20:48.154Z,35.12
2018-01-30T12:21:48.169Z,33.88
2018-01-30T12:22:48.182Z,32.64
2018-01-30T12:23:48.198Z,33.04
2018-01-30T12:24:48.267Z,35.23
2018-01-30T12:25:48.228Z,34.15
2018-01-30T12:26:48.243Z,35.00
2018-01-30T12:27:48.258Z,34.53
2018-01-30T12:28:48.276Z,36.15
2018-01-30T12:29:48.289Z,37.40
2018-01-30T12:30:48.305Z,38.26
2018-01-30T12:31:48.321Z,38.09
2018-01-30T12:32:48.339Z,35.53
2018-01-30T12:33:48.352Z,34.03
2018-01-30T12:34:48.444Z,34.03
2018-01-30T12:35:48.392Z,33.37
2018-01-30T12:36:48.398Z,32.14
2018-01-30T12:37:48.413Z,29.94
2018-01-30T12:38:48.433Z,29.37
2018-01-30T12:39:48.444Z,26.89
2018-01-30T12:40:48.462Z,29.07
2018-01-30T12:41:48.477Z,31.82
2018-01-30T12:42:48.497Z,33.06
2018-01-30T12:43:48.510Z,27.60
2018-01-30T12:44:48.526Z,24.09
2018-01-30T12:45:48.547Z,25.33
2018-01-30T12:46:48.562Z,25.33
2018-01-30T12:47:48.576Z,30.74
2018-01-30T12:48:48.618Z,32.35
2018-01-30T12:49:48.607Z,33.80
2018-01-30T12:50:48.624Z,32.66
2018-01-30T12:51:48.641Z,34.55
2018-01-30T12:52:48.656Z,35.02
2018-01-30T12:53:48.672Z,35.02
2018-01-30T12:54:48.692Z,36.18